sensor_id;sensor_type;location;lat;lon;timestamp;temperature;humidity
39931;DHT22;26635;-35.248;149.138;2023-09-30T00:01:32;19.40;59.60
39931;DHT22;26635;-35.248;149.138;2023-09-30T00:04:05;19.60;59.20
39931;DHT22;26635;-35.248;149.138;2023-09-30T00:06:37;19.80;59.60
39931;DHT22;26635;-35.248;149.138;2023-09-30T00:09:09;19.90;59.20
39931;DHT22;26635;-35.248;149.138;2023-09-30T00:11:42;20.00;57.90
39931;DHT22;26635;-35.248;149.138;2023-09-30T00:14:18;20.10;58.30
39931;DHT22;26635;-35.248;149.138;2023-09-30T00:16:48;20.20;58.50
39931;DHT22;26635;-35.248;149.138;2023-09-30T00:19:30;20.30;59.30
39931;DHT22;26635;-35.248;149.138;2023-09-30T00:22:03;20.40;57.40
39931;DHT22;26635;-35.248;149.138;2023-09-30T00:24:34;20.50;57.30
39931;DHT22;26635;-35.248;149.138;2023-09-30T00:27:05;20.70;56.50
39931;DHT22;26635;-35.248;149.138;2023-09-30T00:29:37;20.90;55.00
39931;DHT22;26635;-35.248;149.138;2023-09-30T00:32:09;21.10;53.90
39931;DHT22;26635;-35.248;149.138;2023-09-30T00:34:42;21.30;53.00
39931;DHT22;26635;-35.248;149.138;2023-09-30T00:37:14;21.50;52.90
39931;DHT22;26635;-35.248;149.138;2023-09-30T00:39:44;21.70;54.20
39931;DHT22;26635;-35.248;149.138;2023-09-30T00:42:15;21.80;53.80
39931;DHT22;26635;-35.248;149.138;2023-09-30T00:44:46;22.00;53.20
39931;DHT22;26635;-35.248;149.138;2023-09-30T00:47:18;22.10;53.40
39931;DHT22;26635;-35.248;149.138;2023-09-30T00:49:51;22.20;52.60
39931;DHT22;26635;-35.248;149.138;2023-09-30T00:52:25;22.20;53.30
39931;DHT22;26635;-35.248;149.138;2023-09-30T00:54:56;22.30;52.20
39931;DHT22;26635;-35.248;149.138;2023-09-30T00:57:30;22.40;52.20
39931;DHT22;26635;-35.248;149.138;2023-09-30T01:00:02;22.60;51.10
39931;DHT22;26635;-35.248;149.138;2023-09-30T01:02:33;22.60;49.70
39931;DHT22;26635;-35.248;149.138;2023-09-30T01:05:05;22.60;50.50
39931;DHT22;26635;-35.248;149.138;2023-09-30T01:07:37;22.60;51.70
39931;DHT22;26635;-35.248;149.138;2023-09-30T01:10:08;22.70;51.10
39931;DHT22;26635;-35.248;149.138;2023-09-30T01:12:39;22.80;50.20
39931;DHT22;26635;-35.248;149.138;2023-09-30T01:15:10;22.90;50.00
39931;DHT22;26635;-35.248;149.138;2023-09-30T01:17:41;23.10;51.50
39931;DHT22;26635;-35.248;149.138;2023-09-30T01:20:14;23.10;50.00
39931;DHT22;26635;-35.248;149.138;2023-09-30T01:22:46;23.20;48.90
39931;DHT22;26635;-35.248;149.138;2023-09-30T01:25:17;23.40;50.20
39931;DHT22;26635;-35.248;149.138;2023-09-30T01:27:48;23.50;49.90
39931;DHT22;26635;-35.248;149.138;2023-09-30T01:30:21;23.70;48.60
39931;DHT22;26635;-35.248;149.138;2023-09-30T01:32:54;23.80;47.90
39931;DHT22;26635;-35.248;149.138;2023-09-30T01:35:25;23.90;46.80
39931;DHT22;26635;-35.248;149.138;2023-09-30T01:37:57;24.00;47.40
39931;DHT22;26635;-35.248;149.138;2023-09-30T01:40:28;24.10;47.50
39931;DHT22;26635;-35.248;149.138;2023-09-30T01:42:59;24.20;47.40
39931;DHT22;26635;-35.248;149.138;2023-09-30T01:45:31;24.30;47.90
39931;DHT22;26635;-35.248;149.138;2023-09-30T01:48:02;24.40;47.20
39931;DHT22;26635;-35.248;149.138;2023-09-30T01:50:33;24.40;47.20
39931;DHT22;26635;-35.248;149.138;2023-09-30T01:53:04;24.40;46.00
39931;DHT22;26635;-35.248;149.138;2023-09-30T01:55:40;24.50;45.60
39931;DHT22;26635;-35.248;149.138;2023-09-30T01:58:11;24.60;44.30
39931;DHT22;26635;-35.248;149.138;2023-09-30T02:00:43;24.60;45.40
39931;DHT22;26635;-35.248;149.138;2023-09-30T02:03:14;24.70;44.90
39931;DHT22;26635;-35.248;149.138;2023-09-30T02:05:45;24.70;42.60
39931;DHT22;26635;-35.248;149.138;2023-09-30T02:08:16;24.80;42.60
39931;DHT22;26635;-35.248;149.138;2023-09-30T02:10:48;24.90;43.40
39931;DHT22;26635;-35.248;149.138;2023-09-30T02:13:19;24.90;44.60
39931;DHT22;26635;-35.248;149.138;2023-09-30T02:15:50;25.10;43.50
39931;DHT22;26635;-35.248;149.138;2023-09-30T02:18:21;25.20;42.40
39931;DHT22;26635;-35.248;149.138;2023-09-30T02:20:55;25.30;41.00
39931;DHT22;26635;-35.248;149.138;2023-09-30T02:23:26;25.30;41.70
39931;DHT22;26635;-35.248;149.138;2023-09-30T02:25:56;25.40;41.30
39931;DHT22;26635;-35.248;149.138;2023-09-30T02:28:27;25.50;41.00
39931;DHT22;26635;-35.248;149.138;2023-09-30T02:30:59;25.50;40.70
39931;DHT22;26635;-35.248;149.138;2023-09-30T02:33:30;25.60;41.30
39931;DHT22;26635;-35.248;149.138;2023-09-30T02:36:01;25.70;40.90
39931;DHT22;26635;-35.248;149.138;2023-09-30T02:38:36;25.60;40.80
39931;DHT22;26635;-35.248;149.138;2023-09-30T02:41:27;25.50;41.50
39931;DHT22;26635;-35.248;149.138;2023-09-30T02:44:15;25.50;40.70
39931;DHT22;26635;-35.248;149.138;2023-09-30T02:46:46;25.50;40.90
39931;DHT22;26635;-35.248;149.138;2023-09-30T02:49:17;25.50;41.20
39931;DHT22;26635;-35.248;149.138;2023-09-30T02:51:49;25.50;40.20
39931;DHT22;26635;-35.248;149.138;2023-09-30T02:54:20;25.60;40.30
39931;DHT22;26635;-35.248;149.138;2023-09-30T02:56:50;25.50;38.70
39931;DHT22;26635;-35.248;149.138;2023-09-30T02:59:21;25.50;39.70
39931;DHT22;26635;-35.248;149.138;2023-09-30T03:01:53;25.50;40.30
39931;DHT22;26635;-35.248;149.138;2023-09-30T03:04:24;25.50;40.20
39931;DHT22;26635;-35.248;149.138;2023-09-30T03:06:58;25.50;41.00
39931;DHT22;26635;-35.248;149.138;2023-09-30T03:09:29;25.50;40.90
39931;DHT22;26635;-35.248;149.138;2023-09-30T03:12:00;25.50;40.60
39931;DHT22;26635;-35.248;149.138;2023-09-30T03:14:32;25.50;41.40
39931;DHT22;26635;-35.248;149.138;2023-09-30T03:17:04;25.50;40.90
39931;DHT22;26635;-35.248;149.138;2023-09-30T03:19:35;25.50;41.10
39931;DHT22;26635;-35.248;149.138;2023-09-30T03:22:07;25.50;41.20
39931;DHT22;26635;-35.248;149.138;2023-09-30T03:24:41;25.50;41.50
39931;DHT22;26635;-35.248;149.138;2023-09-30T03:27:12;25.50;42.50
39931;DHT22;26635;-35.248;149.138;2023-09-30T03:29:44;25.50;42.10
39931;DHT22;26635;-35.248;149.138;2023-09-30T03:32:15;25.50;42.10
39931;DHT22;26635;-35.248;149.138;2023-09-30T03:34:47;25.50;41.10
39931;DHT22;26635;-35.248;149.138;2023-09-30T03:37:19;25.50;41.50
39931;DHT22;26635;-35.248;149.138;2023-09-30T03:39:50;25.60;40.70
39931;DHT22;26635;-35.248;149.138;2023-09-30T03:42:21;25.60;41.70
39931;DHT22;26635;-35.248;149.138;2023-09-30T03:44:52;25.70;41.80
39931;DHT22;26635;-35.248;149.138;2023-09-30T03:47:24;25.70;42.80
39931;DHT22;26635;-35.248;149.138;2023-09-30T03:49:54;25.70;42.60
39931;DHT22;26635;-35.248;149.138;2023-09-30T03:52:25;25.70;41.90
39931;DHT22;26635;-35.248;149.138;2023-09-30T03:55:00;25.70;42.00
39931;DHT22;26635;-35.248;149.138;2023-09-30T03:57:35;25.60;42.40
39931;DHT22;26635;-35.248;149.138;2023-09-30T04:00:08;25.60;43.40
39931;DHT22;26635;-35.248;149.138;2023-09-30T04:02:41;25.50;42.80
39931;DHT22;26635;-35.248;149.138;2023-09-30T04:05:12;25.50;42.60
39931;DHT22;26635;-35.248;149.138;2023-09-30T04:07:45;25.50;43.30
39931;DHT22;26635;-35.248;149.138;2023-09-30T04:10:16;25.50;43.90
39931;DHT22;26635;-35.248;149.138;2023-09-30T04:12:49;25.50;44.30
39931;DHT22;26635;-35.248;149.138;2023-09-30T04:15:19;25.50;44.20
39931;DHT22;26635;-35.248;149.138;2023-09-30T04:17:50;25.50;44.40
39931;DHT22;26635;-35.248;149.138;2023-09-30T04:20:24;25.50;43.50
39931;DHT22;26635;-35.248;149.138;2023-09-30T04:22:57;25.30;43.00
39931;DHT22;26635;-35.248;149.138;2023-09-30T04:25:28;25.30;43.30
39931;DHT22;26635;-35.248;149.138;2023-09-30T04:27:59;25.20;43.10
39931;DHT22;26635;-35.248;149.138;2023-09-30T04:30:32;25.20;43.00
39931;DHT22;26635;-35.248;149.138;2023-09-30T04:33:03;25.00;42.40
39931;DHT22;26635;-35.248;149.138;2023-09-30T04:35:37;25.00;43.40
39931;DHT22;26635;-35.248;149.138;2023-09-30T04:38:10;24.90;43.70
39931;DHT22;26635;-35.248;149.138;2023-09-30T04:40:40;24.90;41.70
39931;DHT22;26635;-35.248;149.138;2023-09-30T04:43:13;24.80;43.60
39931;DHT22;26635;-35.248;149.138;2023-09-30T04:45:44;24.80;43.40
39931;DHT22;26635;-35.248;149.138;2023-09-30T04:48:16;24.90;42.80
39931;DHT22;26635;-35.248;149.138;2023-09-30T04:50:47;24.90;42.30
39931;DHT22;26635;-35.248;149.138;2023-09-30T04:53:18;24.90;41.50
39931;DHT22;26635;-35.248;149.138;2023-09-30T04:55:49;24.90;41.40
39931;DHT22;26635;-35.248;149.138;2023-09-30T04:58:20;24.90;41.10
39931;DHT22;26635;-35.248;149.138;2023-09-30T05:00:53;24.80;41.80
39931;DHT22;26635;-35.248;149.138;2023-09-30T05:03:24;24.80;41.20
39931;DHT22;26635;-35.248;149.138;2023-09-30T05:05:54;24.80;41.90
39931;DHT22;26635;-35.248;149.138;2023-09-30T05:08:28;24.70;42.30
39931;DHT22;26635;-35.248;149.138;2023-09-30T05:10:59;24.70;42.20
39931;DHT22;26635;-35.248;149.138;2023-09-30T05:13:30;24.70;42.40
39931;DHT22;26635;-35.248;149.138;2023-09-30T05:16:04;24.70;42.40
39931;DHT22;26635;-35.248;149.138;2023-09-30T05:18:35;24.70;41.80
39931;DHT22;26635;-35.248;149.138;2023-09-30T05:21:07;24.70;41.30
39931;DHT22;26635;-35.248;149.138;2023-09-30T05:23:38;24.70;41.30
39931;DHT22;26635;-35.248;149.138;2023-09-30T05:26:10;24.70;40.60
39931;DHT22;26635;-35.248;149.138;2023-09-30T05:28:41;24.70;41.10
39931;DHT22;26635;-35.248;149.138;2023-09-30T05:31:12;24.60;40.70
39931;DHT22;26635;-35.248;149.138;2023-09-30T05:33:43;24.60;41.00
39931;DHT22;26635;-35.248;149.138;2023-09-30T05:36:14;24.60;40.50
39931;DHT22;26635;-35.248;149.138;2023-09-30T05:38:46;24.50;41.30
39931;DHT22;26635;-35.248;149.138;2023-09-30T05:41:20;24.40;40.40
39931;DHT22;26635;-35.248;149.138;2023-09-30T05:43:50;24.30;40.80
39931;DHT22;26635;-35.248;149.138;2023-09-30T05:46:24;24.30;40.60
39931;DHT22;26635;-35.248;149.138;2023-09-30T05:48:55;24.20;41.00
39931;DHT22;26635;-35.248;149.138;2023-09-30T05:51:26;24.10;40.70
39931;DHT22;26635;-35.248;149.138;2023-09-30T05:53:57;24.00;40.30
39931;DHT22;26635;-35.248;149.138;2023-09-30T05:56:28;23.90;40.40
39931;DHT22;26635;-35.248;149.138;2023-09-30T05:58:59;23.90;40.20
39931;DHT22;26635;-35.248;149.138;2023-09-30T06:01:30;23.80;41.00
39931;DHT22;26635;-35.248;149.138;2023-09-30T06:04:03;23.80;40.70
39931;DHT22;26635;-35.248;149.138;2023-09-30T06:06:38;23.80;39.50
39931;DHT22;26635;-35.248;149.138;2023-09-30T06:09:10;23.80;40.20
39931;DHT22;26635;-35.248;149.138;2023-09-30T06:11:41;23.70;40.40
39931;DHT22;26635;-35.248;149.138;2023-09-30T06:14:12;23.60;40.40
39931;DHT22;26635;-35.248;149.138;2023-09-30T06:16:44;23.60;40.90
39931;DHT22;26635;-35.248;149.138;2023-09-30T06:19:16;23.50;40.60
39931;DHT22;26635;-35.248;149.138;2023-09-30T06:21:47;23.50;41.20
39931;DHT22;26635;-35.248;149.138;2023-09-30T06:24:20;23.50;40.70
39931;DHT22;26635;-35.248;149.138;2023-09-30T06:26:52;23.40;40.70
39931;DHT22;26635;-35.248;149.138;2023-09-30T06:29:29;23.40;41.40
39931;DHT22;26635;-35.248;149.138;2023-09-30T06:32:00;23.40;41.20
39931;DHT22;26635;-35.248;149.138;2023-09-30T06:34:31;23.30;41.30
39931;DHT22;26635;-35.248;149.138;2023-09-30T06:37:04;23.30;42.20
39931;DHT22;26635;-35.248;149.138;2023-09-30T06:39:35;23.20;43.10
39931;DHT22;26635;-35.248;149.138;2023-09-30T06:42:07;23.20;42.50
39931;DHT22;26635;-35.248;149.138;2023-09-30T06:44:38;23.20;42.40
39931;DHT22;26635;-35.248;149.138;2023-09-30T06:47:08;23.10;43.20
39931;DHT22;26635;-35.248;149.138;2023-09-30T06:49:42;23.20;43.20
39931;DHT22;26635;-35.248;149.138;2023-09-30T06:52:13;23.10;43.10
39931;DHT22;26635;-35.248;149.138;2023-09-30T06:54:44;23.00;43.30
39931;DHT22;26635;-35.248;149.138;2023-09-30T06:57:15;23.00;43.70
39931;DHT22;26635;-35.248;149.138;2023-09-30T06:59:46;23.00;43.70
39931;DHT22;26635;-35.248;149.138;2023-09-30T07:02:17;22.90;43.30
39931;DHT22;26635;-35.248;149.138;2023-09-30T07:04:48;22.80;43.50
39931;DHT22;26635;-35.248;149.138;2023-09-30T07:07:18;22.80;44.20
39931;DHT22;26635;-35.248;149.138;2023-09-30T07:09:50;22.70;44.60
39931;DHT22;26635;-35.248;149.138;2023-09-30T07:12:21;22.60;44.70
39931;DHT22;26635;-35.248;149.138;2023-09-30T07:14:52;22.60;44.90
39931;DHT22;26635;-35.248;149.138;2023-09-30T07:17:32;22.60;45.30
39931;DHT22;26635;-35.248;149.138;2023-09-30T07:20:04;22.50;45.20
39931;DHT22;26635;-35.248;149.138;2023-09-30T07:22:35;22.40;45.00
39931;DHT22;26635;-35.248;149.138;2023-09-30T07:25:09;22.40;45.50
39931;DHT22;26635;-35.248;149.138;2023-09-30T07:27:40;22.30;46.10
39931;DHT22;26635;-35.248;149.138;2023-09-30T07:30:12;22.20;45.90
39931;DHT22;26635;-35.248;149.138;2023-09-30T07:32:45;22.10;46.50
39931;DHT22;26635;-35.248;149.138;2023-09-30T07:35:17;22.00;46.70
39931;DHT22;26635;-35.248;149.138;2023-09-30T07:37:48;22.00;46.90
39931;DHT22;26635;-35.248;149.138;2023-09-30T07:40:21;21.80;47.00
39931;DHT22;26635;-35.248;149.138;2023-09-30T07:42:52;21.80;47.20
39931;DHT22;26635;-35.248;149.138;2023-09-30T07:45:23;21.70;47.50
39931;DHT22;26635;-35.248;149.138;2023-09-30T07:47:54;21.60;47.60
39931;DHT22;26635;-35.248;149.138;2023-09-30T07:50:26;21.50;48.50
39931;DHT22;26635;-35.248;149.138;2023-09-30T07:52:57;21.40;47.50
39931;DHT22;26635;-35.248;149.138;2023-09-30T07:55:28;21.30;47.60
39931;DHT22;26635;-35.248;149.138;2023-09-30T07:57:59;21.10;48.30
39931;DHT22;26635;-35.248;149.138;2023-09-30T08:00:31;21.00;48.00
39931;DHT22;26635;-35.248;149.138;2023-09-30T08:03:03;20.90;48.50
39931;DHT22;26635;-35.248;149.138;2023-09-30T08:05:38;20.80;48.90
39931;DHT22;26635;-35.248;149.138;2023-09-30T08:08:09;20.60;49.10
39931;DHT22;26635;-35.248;149.138;2023-09-30T08:10:42;20.50;49.80
39931;DHT22;26635;-35.248;149.138;2023-09-30T08:13:13;20.40;50.80
39931;DHT22;26635;-35.248;149.138;2023-09-30T08:15:44;20.20;50.60
39931;DHT22;26635;-35.248;149.138;2023-09-30T08:18:15;20.10;51.20
39931;DHT22;26635;-35.248;149.138;2023-09-30T08:20:47;20.00;51.60
39931;DHT22;26635;-35.248;149.138;2023-09-30T08:23:19;19.80;52.80
39931;DHT22;26635;-35.248;149.138;2023-09-30T08:25:51;19.70;52.80
39931;DHT22;26635;-35.248;149.138;2023-09-30T08:28:23;19.60;53.10
39931;DHT22;26635;-35.248;149.138;2023-09-30T08:30:55;19.40;53.50
39931;DHT22;26635;-35.248;149.138;2023-09-30T08:33:30;19.30;54.10
39931;DHT22;26635;-35.248;149.138;2023-09-30T08:36:05;19.20;54.40
39931;DHT22;26635;-35.248;149.138;2023-09-30T08:38:40;19.00;54.90
39931;DHT22;26635;-35.248;149.138;2023-09-30T08:41:32;18.90;55.20
39931;DHT22;26635;-35.248;149.138;2023-09-30T08:44:04;18.80;55.10
39931;DHT22;26635;-35.248;149.138;2023-09-30T08:46:35;18.70;55.40
39931;DHT22;26635;-35.248;149.138;2023-09-30T08:49:06;18.60;55.50
39931;DHT22;26635;-35.248;149.138;2023-09-30T08:51:40;18.50;55.70
39931;DHT22;26635;-35.248;149.138;2023-09-30T08:54:13;18.40;55.70
39931;DHT22;26635;-35.248;149.138;2023-09-30T08:56:47;18.30;56.60
39931;DHT22;26635;-35.248;149.138;2023-09-30T08:59:21;18.20;57.40
39931;DHT22;26635;-35.248;149.138;2023-09-30T09:01:53;18.10;58.40
39931;DHT22;26635;-35.248;149.138;2023-09-30T09:04:23;18.10;58.90
39931;DHT22;26635;-35.248;149.138;2023-09-30T09:06:56;17.90;60.00
39931;DHT22;26635;-35.248;149.138;2023-09-30T09:09:27;17.80;60.40
39931;DHT22;26635;-35.248;149.138;2023-09-30T09:11:58;17.80;60.30
39931;DHT22;26635;-35.248;149.138;2023-09-30T09:14:41;17.70;59.70
39931;DHT22;26635;-35.248;149.138;2023-09-30T09:17:19;17.50;59.90
39931;DHT22;26635;-35.248;149.138;2023-09-30T09:20:02;17.40;62.20
39931;DHT22;26635;-35.248;149.138;2023-09-30T09:22:42;17.30;61.60
39931;DHT22;26635;-35.248;149.138;2023-09-30T09:25:14;17.20;61.30
39931;DHT22;26635;-35.248;149.138;2023-09-30T09:27:45;17.10;61.90
39931;DHT22;26635;-35.248;149.138;2023-09-30T09:30:20;17.00;63.10
39931;DHT22;26635;-35.248;149.138;2023-09-30T09:35:26;16.80;63.50
39931;DHT22;26635;-35.248;149.138;2023-09-30T09:38:04;16.70;63.70
39931;DHT22;26635;-35.248;149.138;2023-09-30T09:40:37;16.60;64.00
39931;DHT22;26635;-35.248;149.138;2023-09-30T09:43:11;16.50;64.20
39931;DHT22;26635;-35.248;149.138;2023-09-30T09:45:42;16.40;66.20
39931;DHT22;26635;-35.248;149.138;2023-09-30T09:48:14;16.40;65.50
39931;DHT22;26635;-35.248;149.138;2023-09-30T09:50:45;16.30;65.40
39931;DHT22;26635;-35.248;149.138;2023-09-30T09:53:19;16.20;65.60
39931;DHT22;26635;-35.248;149.138;2023-09-30T09:55:51;16.10;66.50
39931;DHT22;26635;-35.248;149.138;2023-09-30T09:58:24;16.00;66.80
39931;DHT22;26635;-35.248;149.138;2023-09-30T10:00:56;15.90;67.00
39931;DHT22;26635;-35.248;149.138;2023-09-30T10:03:28;15.80;67.00
39931;DHT22;26635;-35.248;149.138;2023-09-30T10:06:02;15.80;67.70
39931;DHT22;26635;-35.248;149.138;2023-09-30T10:08:40;15.70;68.10
39931;DHT22;26635;-35.248;149.138;2023-09-30T10:11:20;15.60;68.20
39931;DHT22;26635;-35.248;149.138;2023-09-30T10:13:58;15.50;68.40
39931;DHT22;26635;-35.248;149.138;2023-09-30T10:19:22;15.40;68.10
39931;DHT22;26635;-35.248;149.138;2023-09-30T10:24:58;15.30;68.50
39931;DHT22;26635;-35.248;149.138;2023-09-30T10:27:32;15.20;67.90
39931;DHT22;26635;-35.248;149.138;2023-09-30T10:30:08;15.10;68.40
39931;DHT22;26635;-35.248;149.138;2023-09-30T10:44:34;14.80;68.40
39931;DHT22;26635;-35.248;149.138;2023-09-30T10:47:39;14.60;68.90
39931;DHT22;26635;-35.248;149.138;2023-09-30T10:50:51;14.60;69.00
39931;DHT22;26635;-35.248;149.138;2023-09-30T10:53:45;14.50;68.80
39931;DHT22;26635;-35.248;149.138;2023-09-30T10:56:38;14.40;70.20
39931;DHT22;26635;-35.248;149.138;2023-09-30T10:59:31;14.40;70.10
39931;DHT22;26635;-35.248;149.138;2023-09-30T11:02:22;14.30;70.40
39931;DHT22;26635;-35.248;149.138;2023-09-30T11:05:15;14.30;71.50
39931;DHT22;26635;-35.248;149.138;2023-09-30T11:08:06;14.30;70.60
39931;DHT22;26635;-35.248;149.138;2023-09-30T11:11:00;14.30;70.50
39931;DHT22;26635;-35.248;149.138;2023-09-30T11:13:53;14.20;71.80
39931;DHT22;26635;-35.248;149.138;2023-09-30T11:16:45;14.20;71.30
39931;DHT22;26635;-35.248;149.138;2023-09-30T11:19:47;14.10;71.20
39931;DHT22;26635;-35.248;149.138;2023-09-30T11:22:39;14.10;70.40
39931;DHT22;26635;-35.248;149.138;2023-09-30T11:25:35;14.10;71.90
39931;DHT22;26635;-35.248;149.138;2023-09-30T11:28:40;14.00;72.80
39931;DHT22;26635;-35.248;149.138;2023-09-30T11:31:31;14.00;72.50
39931;DHT22;26635;-35.248;149.138;2023-09-30T11:34:37;13.90;72.10
39931;DHT22;26635;-35.248;149.138;2023-09-30T11:37:34;13.90;71.60
39931;DHT22;26635;-35.248;149.138;2023-09-30T11:40:26;13.90;71.30
39931;DHT22;26635;-35.248;149.138;2023-09-30T11:43:17;13.90;71.90
39931;DHT22;26635;-35.248;149.138;2023-09-30T11:46:09;13.90;72.60
39931;DHT22;26635;-35.248;149.138;2023-09-30T11:49:03;13.80;73.30
39931;DHT22;26635;-35.248;149.138;2023-09-30T11:52:01;13.70;73.30
39931;DHT22;26635;-35.248;149.138;2023-09-30T11:54:54;13.70;72.80
39931;DHT22;26635;-35.248;149.138;2023-09-30T11:57:46;13.60;73.30
39931;DHT22;26635;-35.248;149.138;2023-09-30T12:00:41;13.50;73.50
39931;DHT22;26635;-35.248;149.138;2023-09-30T12:03:33;13.50;73.70
39931;DHT22;26635;-35.248;149.138;2023-09-30T12:06:31;13.40;73.50
39931;DHT22;26635;-35.248;149.138;2023-09-30T12:09:24;13.40;73.80
39931;DHT22;26635;-35.248;149.138;2023-09-30T12:12:20;13.30;74.20
39931;DHT22;26635;-35.248;149.138;2023-09-30T12:15:11;13.30;74.30
39931;DHT22;26635;-35.248;149.138;2023-09-30T12:18:02;13.30;74.30
39931;DHT22;26635;-35.248;149.138;2023-09-30T12:20:55;13.20;74.30
39931;DHT22;26635;-35.248;149.138;2023-09-30T12:23:46;13.20;74.60
39931;DHT22;26635;-35.248;149.138;2023-09-30T12:26:40;13.20;75.70
39931;DHT22;26635;-35.248;149.138;2023-09-30T12:29:31;13.10;74.90
39931;DHT22;26635;-35.248;149.138;2023-09-30T12:32:26;13.00;76.00
39931;DHT22;26635;-35.248;149.138;2023-09-30T12:35:17;13.00;75.60
39931;DHT22;26635;-35.248;149.138;2023-09-30T12:38:08;13.00;76.20
39931;DHT22;26635;-35.248;149.138;2023-09-30T12:40:59;12.90;75.90
39931;DHT22;26635;-35.248;149.138;2023-09-30T12:43:51;12.90;76.80
39931;DHT22;26635;-35.248;149.138;2023-09-30T12:46:43;12.80;75.90
39931;DHT22;26635;-35.248;149.138;2023-09-30T12:49:36;12.80;76.50
39931;DHT22;26635;-35.248;149.138;2023-09-30T12:52:27;12.80;75.90
39931;DHT22;26635;-35.248;149.138;2023-09-30T12:55:18;12.80;76.50
39931;DHT22;26635;-35.248;149.138;2023-09-30T12:58:09;12.70;76.80
39931;DHT22;26635;-35.248;149.138;2023-09-30T13:01:01;12.70;76.30
39931;DHT22;26635;-35.248;149.138;2023-09-30T13:04:09;12.60;76.90
39931;DHT22;26635;-35.248;149.138;2023-09-30T13:07:02;12.60;75.70
39931;DHT22;26635;-35.248;149.138;2023-09-30T13:09:53;12.50;75.60
39931;DHT22;26635;-35.248;149.138;2023-09-30T13:12:47;12.50;75.00
39931;DHT22;26635;-35.248;149.138;2023-09-30T13:15:43;12.40;75.70
39931;DHT22;26635;-35.248;149.138;2023-09-30T13:18:35;12.40;76.10
39931;DHT22;26635;-35.248;149.138;2023-09-30T13:21:26;12.40;75.80
39931;DHT22;26635;-35.248;149.138;2023-09-30T13:24:17;12.30;76.60
39931;DHT22;26635;-35.248;149.138;2023-09-30T13:27:09;12.20;76.20
39931;DHT22;26635;-35.248;149.138;2023-09-30T13:30:00;12.20;75.90
39931;DHT22;26635;-35.248;149.138;2023-09-30T13:32:51;12.20;76.50
39931;DHT22;26635;-35.248;149.138;2023-09-30T13:35:46;12.10;76.60
39931;DHT22;26635;-35.248;149.138;2023-09-30T13:38:37;12.10;76.70
39931;DHT22;26635;-35.248;149.138;2023-09-30T13:41:29;12.10;76.00
39931;DHT22;26635;-35.248;149.138;2023-09-30T13:44:20;12.00;77.20
39931;DHT22;26635;-35.248;149.138;2023-09-30T13:47:11;12.00;76.60
39931;DHT22;26635;-35.248;149.138;2023-09-30T13:50:02;12.00;76.80
39931;DHT22;26635;-35.248;149.138;2023-09-30T13:52:57;11.90;78.20
39931;DHT22;26635;-35.248;149.138;2023-09-30T13:55:53;12.00;77.70
39931;DHT22;26635;-35.248;149.138;2023-09-30T13:58:44;11.90;78.00
39931;DHT22;26635;-35.248;149.138;2023-09-30T14:01:37;11.90;78.00
39931;DHT22;26635;-35.248;149.138;2023-09-30T14:04:31;11.80;78.50
39931;DHT22;26635;-35.248;149.138;2023-09-30T14:07:22;11.80;78.80
39931;DHT22;26635;-35.248;149.138;2023-09-30T14:10:15;11.70;78.70
39931;DHT22;26635;-35.248;149.138;2023-09-30T14:13:06;11.70;79.00
39931;DHT22;26635;-35.248;149.138;2023-09-30T14:16:00;11.70;79.00
39931;DHT22;26635;-35.248;149.138;2023-09-30T14:18:52;11.60;79.40
39931;DHT22;26635;-35.248;149.138;2023-09-30T14:21:43;11.60;79.40
39931;DHT22;26635;-35.248;149.138;2023-09-30T14:24:36;11.60;80.70
39931;DHT22;26635;-35.248;149.138;2023-09-30T14:27:28;11.60;80.10
39931;DHT22;26635;-35.248;149.138;2023-09-30T14:30:19;11.60;80.10
39931;DHT22;26635;-35.248;149.138;2023-09-30T14:33:11;11.60;79.70
39931;DHT22;26635;-35.248;149.138;2023-09-30T14:36:04;11.60;79.40
39931;DHT22;26635;-35.248;149.138;2023-09-30T14:38:58;11.60;79.40
39931;DHT22;26635;-35.248;149.138;2023-09-30T14:42:02;11.50;80.10
39931;DHT22;26635;-35.248;149.138;2023-09-30T14:44:55;11.50;79.70
39931;DHT22;26635;-35.248;149.138;2023-09-30T14:47:47;11.40;80.30
39931;DHT22;26635;-35.248;149.138;2023-09-30T14:50:47;11.40;80.50
39931;DHT22;26635;-35.248;149.138;2023-09-30T14:53:38;11.40;81.00
39931;DHT22;26635;-35.248;149.138;2023-09-30T14:56:30;11.40;79.80
39931;DHT22;26635;-35.248;149.138;2023-09-30T14:59:21;11.40;80.30
39931;DHT22;26635;-35.248;149.138;2023-09-30T15:02:12;11.40;80.80
39931;DHT22;26635;-35.248;149.138;2023-09-30T15:05:06;11.40;79.60
39931;DHT22;26635;-35.248;149.138;2023-09-30T15:07:59;11.30;80.30
39931;DHT22;26635;-35.248;149.138;2023-09-30T15:10:55;11.30;79.60
39931;DHT22;26635;-35.248;149.138;2023-09-30T15:13:47;11.20;80.10
39931;DHT22;26635;-35.248;149.138;2023-09-30T15:16:40;11.20;80.20
39931;DHT22;26635;-35.248;149.138;2023-09-30T15:19:31;11.10;81.40
39931;DHT22;26635;-35.248;149.138;2023-09-30T15:22:24;11.10;81.10
39931;DHT22;26635;-35.248;149.138;2023-09-30T15:25:15;11.10;81.40
39931;DHT22;26635;-35.248;149.138;2023-09-30T15:28:09;11.00;81.00
39931;DHT22;26635;-35.248;149.138;2023-09-30T15:30:40;11.00;81.00
39931;DHT22;26635;-35.248;149.138;2023-09-30T15:33:11;11.00;81.60
39931;DHT22;26635;-35.248;149.138;2023-09-30T15:35:42;11.00;81.50
39931;DHT22;26635;-35.248;149.138;2023-09-30T15:38:13;11.00;81.50
39931;DHT22;26635;-35.248;149.138;2023-09-30T15:40:54;10.90;82.80
39931;DHT22;26635;-35.248;149.138;2023-09-30T15:43:27;10.90;81.70
39931;DHT22;26635;-35.248;149.138;2023-09-30T15:45:58;11.00;81.90
39931;DHT22;26635;-35.248;149.138;2023-09-30T15:48:30;10.90;81.40
39931;DHT22;26635;-35.248;149.138;2023-09-30T15:51:00;10.90;81.80
39931;DHT22;26635;-35.248;149.138;2023-09-30T15:53:33;10.90;81.80
39931;DHT22;26635;-35.248;149.138;2023-09-30T15:56:08;10.90;82.10
39931;DHT22;26635;-35.248;149.138;2023-09-30T15:58:41;10.80;82.20
39931;DHT22;26635;-35.248;149.138;2023-09-30T16:01:14;10.80;81.80
39931;DHT22;26635;-35.248;149.138;2023-09-30T16:03:45;10.80;81.70
39931;DHT22;26635;-35.248;149.138;2023-09-30T16:06:16;10.80;81.70
39931;DHT22;26635;-35.248;149.138;2023-09-30T16:08:47;10.80;82.80
39931;DHT22;26635;-35.248;149.138;2023-09-30T16:11:28;10.70;82.80
39931;DHT22;26635;-35.248;149.138;2023-09-30T16:13:59;10.70;82.10